Time;durP1;ratioP1;P1;durP2;ratioP2;P2;SDS_P1;SDS_P2;PMS_P1;PMS_P2;Temp;Humidity;BMP_temperature;BMP_pressure;BME280_temperature;BME280_humidity;BME280_pressure;Samples;Min_cycle;Max_cycle;Signal;HPM_P1;HPM_P2
2022/01/09 18:13:13;;;;;;;17.10;7.57;;;4.70;87.30;;;;;;6146770;22;1274387;-72
2022/01/09 18:15:40;;;;;;;20.75;7.60;;;4.70;87.30;;;;;;6112375;23;20030;-72
2022/01/09 18:18:08;;;;;;;20.17;7.70;;;4.70;87.20;;;;;;6114465;23;20028;-70
2022/01/09 18:20:36;;;;;;;13.75;5.40;;;4.70;87.20;;;;;;6120604;23;20447;-71
2022/01/09 18:23:02;;;;;;;16.90;6.60;;;4.70;87.30;;;;;;6122207;23;20452;-71
2022/01/09 18:25:30;;;;;;;14.75;5.95;;;4.70;87.30;;;;;;6121440;23;20674;-73
2022/01/09 18:27:57;;;;;;;17.98;7.53;;;4.70;87.30;;;;;;6120477;23;20034;-71
2022/01/09 18:30:25;;;;;;;16.27;5.93;;;4.70;87.20;;;;;;6117875;23;20018;-71
2022/01/09 18:32:53;;;;;;;19.73;7.55;;;4.60;87.20;;;;;;6119716;23;20084;-73
2022/01/09 18:35:20;;;;;;;17.98;7.65;;;4.60;87.30;;;;;;6119486;23;20026;-71
2022/01/09 18:37:48;;;;;;;14.02;5.80;;;4.60;87.20;;;;;;6121334;23;20073;-71
2022/01/09 18:40:17;;;;;;;20.08;9.45;;;4.60;87.30;;;;;;6122523;23;20021;-70
2022/01/09 18:42:44;;;;;;;16.38;8.63;;;4.60;87.40;;;;;;6122030;23;20077;-71
2022/01/09 18:45:12;;;;;;;13.40;6.18;;;4.60;87.30;;;;;;6120972;23;20096;-73
2022/01/09 18:47:41;;;;;;;16.45;5.60;;;4.60;87.40;;;;;;6121886;23;20448;-71
2022/01/09 18:50:10;;;;;;;8.15;3.30;;;4.50;87.40;;;;;;6121005;23;20026;-72
2022/01/09 18:52:37;;;;;;;15.30;4.75;;;4.50;87.50;;;;;;6117034;23;20026;-70
2022/01/09 18:55:05;;;;;;;7.25;4.43;;;4.50;87.50;;;;;;6122211;23;20026;-71
2022/01/09 18:57:33;;;;;;;6.78;3.38;;;4.50;87.50;;;;;;6121987;23;20022;-71
2022/01/09 19:00:00;;;;;;;6.25;2.97;;;4.50;87.60;;;;;;6114407;23;20020;-71
2022/01/09 19:02:33;;;;;;;4.65;2.70;;;4.50;87.60;;;;;;6118862;23;20018;-71
2022/01/09 19:05:02;;;;;;;4.47;2.28;;;4.50;87.60;;;;;;6115376;23;20109;-71
2022/01/09 19:07:34;;;;;;;6.18;3.05;;;4.50;87.50;;;;;;6119299;23;20014;-72
2022/01/09 19:10:02;;;;;;;5.13;2.58;;;4.50;87.50;;;;;;6119914;23;20025;-70
2022/01/09 19:12:30;;;;;;;9.52;3.75;;;4.50;87.50;;;;;;6120507;23;20029;-73
2022/01/09 19:14:57;;;;;;;3.83;2.03;;;4.50;87.50;;;;;;6148830;23;20105;-71
2022/01/09 19:17:24;;;;;;;6.55;3.28;;;4.50;87.50;;;;;;6149261;23;20104;-72
2022/01/09 19:19:51;;;;;;;7.00;2.80;;;4.50;87.50;;;;;;6147827;23;20028;-72
2022/01/09 19:22:21;;;;;;;6.70;2.97;;;4.50;87.50;;;;;;6147627;23;20100;-70
2022/01/09 19:24:48;;;;;;;7.37;4.17;;;4.50;87.50;;;;;;6092134;23;20274;-72
2022/01/09 19:27:15;;;;;;;4.70;3.13;;;4.40;87.60;;;;;;350699;23;10023473;-72
2022/01/09 19:29:42;;;;;;;8.75;3.67;;;4.40;87.50;;;;;;6089526;23;20031;-71
2022/01/09 19:32:09;;;;;;;8.63;3.17;;;4.40;87.50;;;;;;6090926;23;20019;-71
2022/01/09 19:34:38;;;;;;;6.53;2.97;;;4.40;87.40;;;;;;6088108;23;20057;-71
2022/01/09 19:37:05;;;;;;;6.72;3.55;;;4.40;87.50;;;;;;6093088;23;20030;-71
2022/01/09 19:39:33;;;;;;;8.02;2.92;;;4.40;87.50;;;;;;6092477;23;20093;-73
2022/01/09 19:42:00;;;;;;;9.45;3.50;;;4.40;87.60;;;;;;6092003;23;20024;-73
2022/01/09 19:44:32;;;;;;;5.03;2.15;;;4.40;87.50;;;;;;6092528;23;20022;-71
2022/01/09 19:47:00;;;;;;;6.15;2.33;;;4.40;87.50;;;;;;6092925;23;20053;-73
2022/01/09 19:49:29;;;;;;;4.93;2.08;;;4.40;87.40;;;;;;6093319;23;20025;-72
2022/01/09 19:51:59;;;;;;;4.45;2.40;;;4.40;87.50;;;;;;6093389;23;20208;-72
2022/01/09 19:54:27;;;;;;;7.23;2.60;;;4.30;87.50;;;;;;6094016;23;20029;-72
2022/01/09 19:56:56;;;;;;;4.88;2.47;;;4.40;87.50;;;;;;6087453;23;20022;-73
2022/01/09 19:59:23;;;;;;;3.50;2.22;;;4.40;87.50;;;;;;6092112;23;20123;-72
2022/01/09 20:01:51;;;;;;;8.05;2.60;;;4.40;87.60;;;;;;6090367;23;20101;-73
2022/01/09 20:04:17;;;;;;;5.55;2.58;;;4.30;87.50;;;;;;6093375;23;20025;-72
2022/01/09 20:06:44;;;;;;;7.53;2.75;;;4.40;87.50;;;;;;6092188;23;20529;-72
2022/01/09 20:09:12;;;;;;;6.43;2.67;;;4.40;87.40;;;;;;6089268;23;20035;-72
2022/01/09 20:11:44;;;;;;;4.68;2.15;;;4.40;87.40;;;;;;6086839;23;20026;-71
2022/01/09 20:14:12;;;;;;;4.97;2.20;;;4.40;87.50;;;;;;6089486;23;20074;-72
2022/01/09 20:16:39;;;;;;;5.00;2.78;;;4.40;87.40;;;;;;6086581;23;20120;-72
2022/01/09 20:27:16;;;;;;;8.20;3.50;;;4.40;87.60;;;;;;6079541;23;20135;-72
2022/01/09 20:29:44;;;;;;;10.80;4.72;;;4.30;87.60;;;;;;6087364;23;20036;-75
2022/01/09 20:32:11;;;;;;;9.63;2.83;;;4.30;87.60;;;;;;6091524;23;20022;-74
2022/01/09 20:34:38;;;;;;;6.07;2.83;;;4.40;87.60;;;;;;6088561;23;20026;-74
2022/01/09 20:37:05;;;;;;;6.57;3.03;;;4.30;87.60;;;;;;6090323;23;20053;-74
2022/01/09 20:39:32;;;;;;;10.98;4.00;;;4.30;87.60;;;;;;6087769;23;20473;-74
2022/01/09 20:41:59;;;;;;;9.45;3.45;;;4.30;87.60;;;;;;6084797;23;20023;-74
2022/01/09 20:44:30;;;;;;;8.50;4.00;;;4.30;87.70;;;;;;6082842;23;20369;-73
2022/01/09 20:46:58;;;;;;;7.35;3.15;;;4.40;87.70;;;;;;6084729;23;20030;-74
2022/01/09 20:49:25;;;;;;;6.75;2.90;;;4.40;87.60;;;;;;6084318;23;20054;-74
2022/01/09 20:51:53;;;;;;;6.65;2.38;;;4.30;87.50;;;;;;6084363;23;20102;-71
2022/01/09 20:54:22;;;;;;;4.43;2.00;;;4.30;87.50;;;;;;6085084;23;20026;-72
2022/01/09 20:56:49;;;;;;;4.70;1.70;;;4.30;87.50;;;;;;6084768;23;22471;-74
2022/01/09 20:59:16;;;;;;;4.78;2.00;;;4.30;87.40;;;;;;6110981;23;20340;-74
2022/01/09 21:01:52;;;;;;;1.86;0.74;;;4.30;87.50;;;;;;4641488;23;10024103;-74
2022/01/09 21:04:21;;;;;;;3.33;1.42;;;4.20;87.50;;;;;;2933868;23;10002061;-72
2022/01/09 21:06:48;;;;;;;5.47;1.30;;;4.20;87.50;;;;;;6088767;23;20114;-73
2022/01/09 21:09:15;;;;;;;3.13;1.63;;;4.30;87.50;;;;;;6084425;23;20105;-73
2022/01/09 21:11:44;;;;;;;2.25;0.77;;;4.30;87.40;;;;;;6090153;23;20041;-73
2022/01/09 21:14:12;;;;;;;1.48;0.85;;;4.30;87.40;;;;;;6085731;23;20023;-73
2022/01/09 21:16:39;;;;;;;1.77;0.60;;;4.30;87.40;;;;;;6088285;23;20097;-74
2022/01/09 21:19:08;;;;;;;4.38;1.33;;;4.20;87.30;;;;;;6087452;23;20026;-73
2022/01/09 21:21:36;;;;;;;3.83;1.17;;;4.20;87.40;;;;;;6087833;23;20025;-73
2022/01/09 21:24:03;;;;;;;2.33;0.88;;;4.20;87.30;;;;;;6087560;23;20022;-73
2022/01/09 21:26:30;;;;;;;2.60;1.20;;;4.20;87.30;;;;;;6068671;23;20106;-74
2022/01/09 21:28:57;;;;;;;2.58;0.80;;;4.20;87.30;;;;;;6062658;23;20073;-73
2022/01/09 21:31:24;;;;;;;3.60;0.80;;;4.20;87.20;;;;;;6062115;23;20022;-73
2022/01/09 21:33:51;;;;;;;2.40;1.40;;;4.20;87.20;;;;;;6059866;23;20114;-73
2022/01/09 21:36:18;;;;;;;2.83;1.17;;;4.20;87.20;;;;;;6059118;23;20035;-72
2022/01/09 21:38:49;;;;;;;3.75;1.30;;;4.20;87.30;;;;;;6058554;23;20022;-73
2022/01/09 21:41:16;;;;;;;1.23;0.82;;;4.20;87.30;;;;;;6061054;23;20031;-72
2022/01/09 21:43:43;;;;;;;3.97;1.60;;;4.20;87.40;;;;;;6060765;23;20023;-73
2022/01/09 21:46:10;;;;;;;4.13;1.50;;;4.20;87.50;;;;;;6064892;23;20352;-72
2022/01/09 21:48:37;;;;;;;5.40;1.52;;;4.20;87.50;;;;;;6061682;23;20050;-72
2022/01/09 21:51:04;;;;;;;3.58;1.60;;;4.20;87.50;;;;;;6059659;23;20414;-71
2022/01/09 21:53:31;;;;;;;4.90;2.00;;;4.20;87.50;;;;;;6062566;23;20030;-74
2022/01/09 21:56:00;;;;;;;3.67;1.88;;;4.20;87.60;;;;;;6059595;23;20027;-72
2022/01/09 21:58:29;;;;;;;;;;;4.20;87.60;;;;;;6062564;23;20023;-73
2022/01/09 22:00:56;;;;;;;5.93;2.00;;;4.20;87.60;;;;;;6059519;23;20124;-73
2022/01/09 22:03:23;;;;;;;6.55;2.42;;;4.20;87.60;;;;;;6060642;23;20025;-72
2022/01/09 22:05:49;;;;;;;6.05;2.58;;;4.20;87.60;;;;;;6062759;23;20030;-73
2022/01/09 22:08:16;;;;;;;8.95;2.72;;;4.20;87.60;;;;;;6062625;23;20101;-72
2022/01/09 22:11:03;;;;;;;4.03;1.91;;;4.20;87.60;;;;;;2695166;23;10150671;-74
2022/01/09 22:13:30;;;;;;;5.38;2.40;;;4.20;87.70;;;;;;5228169;23;10001292;-74
2022/01/09 22:15:57;;;;;;;4.95;2.17;;;4.20;87.70;;;;;;6063783;23;20058;-73
2022/01/09 22:18:25;;;;;;;6.72;2.60;;;4.20;87.60;;;;;;6063829;23;20055;-73
2022/01/09 22:20:53;;;;;;;5.40;2.78;;;4.20;87.70;;;;;;6064319;23;20026;-73
2022/01/09 22:23:20;;;;;;;8.27;3.08;;;4.20;87.70;;;;;;6064376;23;20051;-73
2022/01/09 22:25:47;;;;;;;5.78;2.45;;;4.30;87.60;;;;;;6060858;23;20453;-73
2022/01/09 22:28:15;;;;;;;6.60;2.83;;;4.30;87.60;;;;;;6062595;23;20098;-73
2022/01/09 22:30:43;;;;;;;4.55;2.28;;;4.30;87.70;;;;;;6062392;23;20415;-73
2022/01/09 22:33:10;;;;;;;5.57;2.80;;;4.20;87.70;;;;;;6062491;23;20050;-72
2022/01/09 22:35:37;;;;;;;5.18;2.33;;;4.30;87.70;;;;;;6062742;23;20027;-74
2022/01/09 22:38:04;;;;;;;5.30;2.75;;;4.20;87.70;;;;;;6063276;23;20023;-72
2022/01/09 22:40:31;;;;;;;7.45;3.55;;;4.30;87.60;;;;;;6062544;23;20023;-73
2022/01/09 22:42:59;;;;;;;10.55;4.43;;;4.20;87.70;;;;;;6063286;23;20060;-72
2022/01/09 22:45:28;;;;;;;10.82;4.28;;;4.30;87.60;;;;;;6083994;23;20033;-74
2022/01/09 22:47:56;;;;;;;12.52;5.55;;;4.30;87.60;;;;;;6062644;23;20027;-73
2022/01/09 22:50:23;;;;;;;12.48;4.78;;;4.20;87.50;;;;;;6062938;23;20104;-73
2022/01/09 22:52:50;;;;;;;9.60;5.38;;;4.30;87.50;;;;;;6062047;23;20031;-73
2022/01/09 22:55:17;;;;;;;14.13;4.85;;;4.20;87.50;;;;;;6062594;23;20366;-73
2022/01/09 22:57:44;;;;;;;7.93;4.97;;;4.20;87.60;;;;;;6061985;23;20019;-73
2022/01/09 23:00:16;;;;;;;10.80;4.95;;;4.20;87.50;;;;;;6060071;23;20349;-72
2022/01/09 23:02:44;;;;;;;9.40;5.18;;;4.20;87.50;;;;;;6062060;23;20069;-74
2022/01/09 23:05:14;;;;;;;9.80;4.22;;;4.20;87.50;;;;;;6064787;23;20022;-73
2022/01/09 23:07:41;;;;;;;11.47;5.43;;;4.20;87.50;;;;;;6063991;23;20476;-73
2022/01/09 23:10:08;;;;;;;12.55;4.53;;;4.20;87.50;;;;;;6065332;23;20111;-73
2022/01/09 23:12:35;;;;;;;10.38;4.50;;;4.20;87.60;;;;;;6066282;23;20031;-73
2022/01/09 23:15:02;;;;;;;8.48;4.72;;;4.20;87.60;;;;;;6066433;23;20029;-73
2022/01/09 23:17:29;;;;;;;11.50;4.97;;;4.20;87.60;;;;;;6066575;23;20097;-72
2022/01/09 23:19:57;;;;;;;12.07;5.43;;;4.20;87.70;;;;;;6063609;23;20368;-73
2022/01/09 23:22:24;;;;;;;8.82;3.95;;;4.20;87.70;;;;;;6066977;23;20022;-73
2022/01/09 23:24:51;;;;;;;9.82;3.63;;;4.20;87.70;;;;;;6065574;23;20045;-73
2022/01/09 23:27:18;;;;;;;7.90;3.15;;;4.20;87.80;;;;;;6066083;23;20106;-73
2022/01/09 23:29:45;;;;;;;4.32;2.03;;;4.20;87.80;;;;;;6066509;23;20097;-73
2022/01/09 23:32:12;;;;;;;5.75;2.75;;;4.20;87.80;;;;;;6066812;23;20022;-73
2022/01/09 23:34:39;;;;;;;4.80;2.05;;;4.20;87.80;;;;;;6065866;23;20042;-73
2022/01/09 23:37:16;;;;;;;5.57;2.30;;;4.20;87.80;;;;;;6066826;23;20030;-72
2022/01/09 23:39:43;;;;;;;3.58;1.92;;;4.20;87.80;;;;;;6065212;23;20026;-72
2022/01/09 23:42:13;;;;;;;3.85;1.60;;;4.20;87.70;;;;;;6066242;23;20085;-73
2022/01/09 23:44:40;;;;;;;9.33;2.20;;;4.20;87.70;;;;;;6065781;23;20021;-72
2022/01/09 23:47:07;;;;;;;1.95;1.15;;;4.20;87.60;;;;;;6066199;23;20031;-73
2022/01/09 23:52:20;;;;;;;5.85;1.95;;;4.20;87.60;;;;;;6066082;23;20023;-72
2022/01/09 23:54:47;;;;;;;5.07;2.28;;;4.10;87.60;;;;;;6063101;23;20335;-73
2022/01/09 23:57:14;;;;;;;4.15;2.40;;;4.10;87.60;;;;;;6060376;23;20051;-72
2022/01/09 23:59:41;;;;;;;7.13;2.75;;;4.10;87.60;;;;;;6060387;23;20019;-72
